sensor_id;sensor_type;location;lat;lon;timestamp;P1;durP1;ratioP1;P2;durP2;ratioP2
2039;SDS011;1025;42.686;23.350;2024-03-02T00:00:53;26.80;;;21.93;;
2039;SDS011;1025;42.686;23.350;2024-03-02T00:03:19;31.57;;;19.97;;
2039;SDS011;1025;42.686;23.350;2024-03-02T00:05:49;21.87;;;18.47;;
2039;SDS011;1025;42.686;23.350;2024-03-02T00:08:22;23.83;;;19.93;;
2039;SDS011;1025;42.686;23.350;2024-03-02T00:10:51;21.40;;;17.37;;
2039;SDS011;1025;42.686;23.350;2024-03-02T00:13:21;23.20;;;18.30;;
2039;SDS011;1025;42.686;23.350;2024-03-02T00:15:51;25.17;;;17.73;;
2039;SDS011;1025;42.686;23.350;2024-03-02T00:18:23;24.60;;;19.00;;
2039;SDS011;1025;42.686;23.350;2024-03-02T00:20:52;30.87;;;21.17;;
2039;SDS011;1025;42.686;23.350;2024-03-02T00:23:19;25.43;;;19.13;;
2039;SDS011;1025;42.686;23.350;2024-03-02T00:25:49;24.93;;;19.57;;
2039;SDS011;1025;42.686;23.350;2024-03-02T00:28:20;23.40;;;19.13;;
2039;SDS011;1025;42.686;23.350;2024-03-02T00:30:59;27.30;;;18.83;;
2039;SDS011;1025;42.686;23.350;2024-03-02T00:33:29;27.97;;;19.60;;
2039;SDS011;1025;42.686;23.350;2024-03-02T00:35:56;26.00;;;21.13;;
2039;SDS011;1025;42.686;23.350;2024-03-02T00:38:24;25.27;;;19.80;;
2039;SDS011;1025;42.686;23.350;2024-03-02T00:40:50;24.33;;;18.57;;
2039;SDS011;1025;42.686;23.350;2024-03-02T00:46:03;27.10;;;18.73;;
2039;SDS011;1025;42.686;23.350;2024-03-02T00:48:32;26.33;;;19.20;;
2039;SDS011;1025;42.686;23.350;2024-03-02T00:51:01;27.43;;;19.13;;
2039;SDS011;1025;42.686;23.350;2024-03-02T00:53:31;22.97;;;17.60;;
2039;SDS011;1025;42.686;23.350;2024-03-02T00:56:00;22.93;;;17.83;;
2039;SDS011;1025;42.686;23.350;2024-03-02T00:58:27;24.87;;;19.20;;
2039;SDS011;1025;42.686;23.350;2024-03-02T01:00:53;20.17;;;16.97;;
2039;SDS011;1025;42.686;23.350;2024-03-02T01:03:24;25.07;;;18.20;;
2039;SDS011;1025;42.686;23.350;2024-03-02T01:05:50;20.47;;;16.93;;
2039;SDS011;1025;42.686;23.350;2024-03-02T01:08:17;22.97;;;16.63;;
2039;SDS011;1025;42.686;23.350;2024-03-02T01:10:45;18.90;;;16.27;;
2039;SDS011;1025;42.686;23.350;2024-03-02T01:13:14;21.73;;;17.80;;
2039;SDS011;1025;42.686;23.350;2024-03-02T01:15:41;19.90;;;15.70;;
2039;SDS011;1025;42.686;23.350;2024-03-02T01:18:07;19.40;;;15.57;;
2039;SDS011;1025;42.686;23.350;2024-03-02T01:20:38;21.87;;;15.73;;
2039;SDS011;1025;42.686;23.350;2024-03-02T01:23:04;17.57;;;15.67;;
2039;SDS011;1025;42.686;23.350;2024-03-02T01:25:31;21.83;;;16.07;;
2039;SDS011;1025;42.686;23.350;2024-03-02T01:27:59;19.57;;;15.33;;
2039;SDS011;1025;42.686;23.350;2024-03-02T01:30:28;21.47;;;16.20;;
2039;SDS011;1025;42.686;23.350;2024-03-02T01:32:54;23.13;;;17.27;;
2039;SDS011;1025;42.686;23.350;2024-03-02T01:35:21;21.07;;;17.10;;
2039;SDS011;1025;42.686;23.350;2024-03-02T01:37:51;19.07;;;15.07;;
2039;SDS011;1025;42.686;23.350;2024-03-02T01:40:17;19.13;;;16.57;;
2039;SDS011;1025;42.686;23.350;2024-03-02T01:42:44;18.53;;;16.13;;
2039;SDS011;1025;42.686;23.350;2024-03-02T01:45:13;19.27;;;16.40;;
2039;SDS011;1025;42.686;23.350;2024-03-02T01:47:44;27.23;;;20.30;;
2039;SDS011;1025;42.686;23.350;2024-03-02T01:50:11;25.57;;;18.80;;
2039;SDS011;1025;42.686;23.350;2024-03-02T01:52:38;24.23;;;18.40;;
2039;SDS011;1025;42.686;23.350;2024-03-02T01:55:11;26.27;;;19.07;;
2039;SDS011;1025;42.686;23.350;2024-03-02T01:57:38;25.87;;;20.37;;
2039;SDS011;1025;42.686;23.350;2024-03-02T02:00:05;27.73;;;21.37;;
2039;SDS011;1025;42.686;23.350;2024-03-02T02:02:37;26.40;;;19.63;;
2039;SDS011;1025;42.686;23.350;2024-03-02T02:05:06;24.93;;;19.63;;
2039;SDS011;1025;42.686;23.350;2024-03-02T02:07:32;26.37;;;19.77;;
2039;SDS011;1025;42.686;23.350;2024-03-02T02:10:00;30.93;;;21.13;;
2039;SDS011;1025;42.686;23.350;2024-03-02T02:12:35;27.00;;;19.90;;
2039;SDS011;1025;42.686;23.350;2024-03-02T02:15:02;27.80;;;19.60;;
2039;SDS011;1025;42.686;23.350;2024-03-02T02:17:28;22.77;;;19.17;;
2039;SDS011;1025;42.686;23.350;2024-03-02T02:19:57;25.57;;;20.50;;
2039;SDS011;1025;42.686;23.350;2024-03-02T02:22:25;29.67;;;22.43;;
2039;SDS011;1025;42.686;23.350;2024-03-02T02:24:52;22.97;;;18.23;;
2039;SDS011;1025;42.686;23.350;2024-03-02T02:27:20;28.17;;;20.63;;
2039;SDS011;1025;42.686;23.350;2024-03-02T02:29:49;26.33;;;19.53;;
2039;SDS011;1025;42.686;23.350;2024-03-02T02:32:16;25.40;;;20.50;;
2039;SDS011;1025;42.686;23.350;2024-03-02T02:34:44;29.50;;;20.30;;
2039;SDS011;1025;42.686;23.350;2024-03-02T02:37:13;28.33;;;21.10;;
2039;SDS011;1025;42.686;23.350;2024-03-02T02:39:41;25.77;;;20.80;;
2039;SDS011;1025;42.686;23.350;2024-03-02T02:42:07;33.53;;;23.63;;
2039;SDS011;1025;42.686;23.350;2024-03-02T02:44:36;32.57;;;21.03;;
2039;SDS011;1025;42.686;23.350;2024-03-02T02:47:03;26.07;;;21.27;;
2039;SDS011;1025;42.686;23.350;2024-03-02T02:49:29;23.73;;;18.67;;
2039;SDS011;1025;42.686;23.350;2024-03-02T02:51:59;24.10;;;18.87;;
2039;SDS011;1025;42.686;23.350;2024-03-02T02:54:26;25.03;;;21.17;;
2039;SDS011;1025;42.686;23.350;2024-03-02T02:56:54;28.37;;;21.30;;
2039;SDS011;1025;42.686;23.350;2024-03-02T02:59:23;23.67;;;17.57;;
2039;SDS011;1025;42.686;23.350;2024-03-02T03:01:51;25.10;;;20.20;;
2039;SDS011;1025;42.686;23.350;2024-03-02T03:04:18;27.90;;;20.80;;
2039;SDS011;1025;42.686;23.350;2024-03-02T03:06:47;23.20;;;19.73;;
2039;SDS011;1025;42.686;23.350;2024-03-02T03:09:14;30.10;;;22.17;;
2039;SDS011;1025;42.686;23.350;2024-03-02T03:11:41;29.80;;;21.33;;
2039;SDS011;1025;42.686;23.350;2024-03-02T03:14:11;27.87;;;21.57;;
2039;SDS011;1025;42.686;23.350;2024-03-02T03:16:37;28.70;;;21.67;;
2039;SDS011;1025;42.686;23.350;2024-03-02T03:19:04;26.40;;;20.23;;
2039;SDS011;1025;42.686;23.350;2024-03-02T03:21:32;25.53;;;20.10;;
2039;SDS011;1025;42.686;23.350;2024-03-02T03:24:01;29.80;;;21.80;;
2039;SDS011;1025;42.686;23.350;2024-03-02T03:26:28;26.70;;;19.90;;
2039;SDS011;1025;42.686;23.350;2024-03-02T03:28:55;27.27;;;19.63;;
2039;SDS011;1025;42.686;23.350;2024-03-02T03:31:24;29.33;;;21.77;;
2039;SDS011;1025;42.686;23.350;2024-03-02T03:33:51;29.57;;;21.30;;
2039;SDS011;1025;42.686;23.350;2024-03-02T03:36:17;27.60;;;21.70;;
2039;SDS011;1025;42.686;23.350;2024-03-02T03:38:46;33.03;;;21.97;;
2039;SDS011;1025;42.686;23.350;2024-03-02T03:41:13;25.63;;;20.20;;
2039;SDS011;1025;42.686;23.350;2024-03-02T03:43:40;26.50;;;21.07;;
2039;SDS011;1025;42.686;23.350;2024-03-02T03:46:08;24.47;;;21.27;;
2039;SDS011;1025;42.686;23.350;2024-03-02T03:48:36;27.10;;;21.53;;
2039;SDS011;1025;42.686;23.350;2024-03-02T03:51:03;26.43;;;20.47;;
2039;SDS011;1025;42.686;23.350;2024-03-02T03:53:32;23.70;;;21.00;;
2039;SDS011;1025;42.686;23.350;2024-03-02T03:55:58;30.10;;;23.07;;
2039;SDS011;1025;42.686;23.350;2024-03-02T03:58:25;30.30;;;22.20;;
2039;SDS011;1025;42.686;23.350;2024-03-02T04:00:55;28.33;;;23.23;;
2039;SDS011;1025;42.686;23.350;2024-03-02T04:03:22;26.97;;;21.73;;
2039;SDS011;1025;42.686;23.350;2024-03-02T04:05:50;25.37;;;19.93;;
2039;SDS011;1025;42.686;23.350;2024-03-02T04:08:18;29.50;;;20.27;;
2039;SDS011;1025;42.686;23.350;2024-03-02T04:10:45;26.73;;;19.80;;
2039;SDS011;1025;42.686;23.350;2024-03-02T04:13:12;24.87;;;19.43;;
2039;SDS011;1025;42.686;23.350;2024-03-02T04:15:40;27.17;;;20.03;;
2039;SDS011;1025;42.686;23.350;2024-03-02T04:18:07;25.13;;;19.90;;
2039;SDS011;1025;42.686;23.350;2024-03-02T04:20:33;23.37;;;19.77;;
2039;SDS011;1025;42.686;23.350;2024-03-02T04:23:03;25.20;;;20.70;;
2039;SDS011;1025;42.686;23.350;2024-03-02T04:25:30;26.93;;;21.90;;
2039;SDS011;1025;42.686;23.350;2024-03-02T04:27:56;25.63;;;19.70;;
2039;SDS011;1025;42.686;23.350;2024-03-02T04:30:25;25.53;;;20.50;;
2039;SDS011;1025;42.686;23.350;2024-03-02T04:32:52;35.70;;;21.70;;
2039;SDS011;1025;42.686;23.350;2024-03-02T04:35:18;29.90;;;21.63;;
2039;SDS011;1025;42.686;23.350;2024-03-02T04:37:47;28.33;;;21.33;;
2039;SDS011;1025;42.686;23.350;2024-03-02T04:40:17;32.37;;;21.37;;
2039;SDS011;1025;42.686;23.350;2024-03-02T04:42:48;30.87;;;23.10;;
2039;SDS011;1025;42.686;23.350;2024-03-02T04:45:14;29.70;;;20.77;;
2039;SDS011;1025;42.686;23.350;2024-03-02T04:47:46;30.53;;;23.13;;
2039;SDS011;1025;42.686;23.350;2024-03-02T04:50:13;31.73;;;21.60;;
2039;SDS011;1025;42.686;23.350;2024-03-02T04:52:39;32.17;;;22.00;;
2039;SDS011;1025;42.686;23.350;2024-03-02T04:55:08;30.67;;;21.50;;
2039;SDS011;1025;42.686;23.350;2024-03-02T04:58:01;31.33;;;21.27;;
2039;SDS011;1025;42.686;23.350;2024-03-02T05:00:30;33.13;;;20.63;;
2039;SDS011;1025;42.686;23.350;2024-03-02T05:02:57;28.73;;;21.30;;
2039;SDS011;1025;42.686;23.350;2024-03-02T05:05:23;39.83;;;23.13;;
2039;SDS011;1025;42.686;23.350;2024-03-02T05:07:50;31.37;;;22.30;;
2039;SDS011;1025;42.686;23.350;2024-03-02T05:10:16;34.27;;;22.83;;
2039;SDS011;1025;42.686;23.350;2024-03-02T05:12:43;32.50;;;23.00;;
2039;SDS011;1025;42.686;23.350;2024-03-02T05:15:26;33.27;;;23.57;;
2039;SDS011;1025;42.686;23.350;2024-03-02T05:17:52;29.10;;;22.27;;
2039;SDS011;1025;42.686;23.350;2024-03-02T05:20:20;28.47;;;20.93;;
2039;SDS011;1025;42.686;23.350;2024-03-02T05:22:48;30.40;;;24.47;;
2039;SDS011;1025;42.686;23.350;2024-03-02T05:25:15;36.57;;;23.70;;
2039;SDS011;1025;42.686;23.350;2024-03-02T05:27:42;36.20;;;25.30;;
2039;SDS011;1025;42.686;23.350;2024-03-02T05:30:09;38.03;;;24.40;;
2039;SDS011;1025;42.686;23.350;2024-03-02T05:32:37;34.87;;;24.07;;
2039;SDS011;1025;42.686;23.350;2024-03-02T05:35:04;37.57;;;26.73;;
2039;SDS011;1025;42.686;23.350;2024-03-02T05:37:31;36.77;;;23.60;;
2039;SDS011;1025;42.686;23.350;2024-03-02T05:39:57;33.50;;;24.70;;
2039;SDS011;1025;42.686;23.350;2024-03-02T05:42:24;35.20;;;24.30;;
2039;SDS011;1025;42.686;23.350;2024-03-02T05:44:52;37.13;;;25.17;;
2039;SDS011;1025;42.686;23.350;2024-03-02T05:47:18;33.30;;;24.67;;
2039;SDS011;1025;42.686;23.350;2024-03-02T05:49:46;35.60;;;23.70;;
2039;SDS011;1025;42.686;23.350;2024-03-02T05:52:14;35.93;;;23.73;;
2039;SDS011;1025;42.686;23.350;2024-03-02T05:54:41;34.20;;;25.50;;
2039;SDS011;1025;42.686;23.350;2024-03-02T05:57:07;34.83;;;25.07;;
2039;SDS011;1025;42.686;23.350;2024-03-02T05:59:57;31.53;;;23.20;;
2039;SDS011;1025;42.686;23.350;2024-03-02T06:02:23;36.30;;;23.83;;
2039;SDS011;1025;42.686;23.350;2024-03-02T06:04:52;33.43;;;22.30;;
2039;SDS011;1025;42.686;23.350;2024-03-02T06:07:21;44.00;;;26.20;;
2039;SDS011;1025;42.686;23.350;2024-03-02T06:09:47;32.50;;;23.30;;
2039;SDS011;1025;42.686;23.350;2024-03-02T06:12:16;35.07;;;24.30;;
2039;SDS011;1025;42.686;23.350;2024-03-02T06:14:43;35.27;;;25.50;;
2039;SDS011;1025;42.686;23.350;2024-03-02T06:17:09;37.70;;;26.17;;
2039;SDS011;1025;42.686;23.350;2024-03-02T06:19:36;37.10;;;25.13;;
2039;SDS011;1025;42.686;23.350;2024-03-02T06:22:04;37.20;;;24.90;;
2039;SDS011;1025;42.686;23.350;2024-03-02T06:24:30;40.80;;;26.00;;
2039;SDS011;1025;42.686;23.350;2024-03-02T06:26:57;36.20;;;23.43;;
2039;SDS011;1025;42.686;23.350;2024-03-02T06:29:23;38.23;;;24.53;;
2039;SDS011;1025;42.686;23.350;2024-03-02T06:31:50;36.30;;;25.33;;
2039;SDS011;1025;42.686;23.350;2024-03-02T06:34:18;31.03;;;21.40;;
2039;SDS011;1025;42.686;23.350;2024-03-02T06:36:45;34.23;;;24.70;;
2039;SDS011;1025;42.686;23.350;2024-03-02T06:39:13;38.20;;;25.27;;
2039;SDS011;1025;42.686;23.350;2024-03-02T06:41:42;32.40;;;23.03;;
2039;SDS011;1025;42.686;23.350;2024-03-02T06:44:08;38.10;;;24.33;;
2039;SDS011;1025;42.686;23.350;2024-03-02T06:46:35;32.97;;;22.50;;
2039;SDS011;1025;42.686;23.350;2024-03-02T06:49:03;31.83;;;22.93;;
2039;SDS011;1025;42.686;23.350;2024-03-02T06:51:30;41.13;;;25.27;;
2039;SDS011;1025;42.686;23.350;2024-03-02T06:53:56;38.30;;;24.40;;
2039;SDS011;1025;42.686;23.350;2024-03-02T06:56:26;31.03;;;22.20;;
2039;SDS011;1025;42.686;23.350;2024-03-02T06:58:53;36.70;;;24.20;;
2039;SDS011;1025;42.686;23.350;2024-03-02T07:01:19;40.77;;;22.73;;
2039;SDS011;1025;42.686;23.350;2024-03-02T07:03:46;37.07;;;22.90;;
2039;SDS011;1025;42.686;23.350;2024-03-02T07:06:12;31.97;;;22.60;;
2039;SDS011;1025;42.686;23.350;2024-03-02T07:08:39;36.37;;;24.37;;
2039;SDS011;1025;42.686;23.350;2024-03-02T07:11:07;43.97;;;26.20;;
2039;SDS011;1025;42.686;23.350;2024-03-02T07:13:36;38.53;;;22.23;;
2039;SDS011;1025;42.686;23.350;2024-03-02T07:16:02;35.33;;;22.93;;
2039;SDS011;1025;42.686;23.350;2024-03-02T07:18:53;38.57;;;21.87;;
2039;SDS011;1025;42.686;23.350;2024-03-02T07:21:21;33.33;;;23.43;;
2039;SDS011;1025;42.686;23.350;2024-03-02T07:23:48;36.33;;;24.83;;
2039;SDS011;1025;42.686;23.350;2024-03-02T07:26:16;32.97;;;23.57;;
2039;SDS011;1025;42.686;23.350;2024-03-02T07:28:44;39.40;;;24.47;;
2039;SDS011;1025;42.686;23.350;2024-03-02T07:31:11;37.97;;;25.50;;
2039;SDS011;1025;42.686;23.350;2024-03-02T07:33:39;38.97;;;25.40;;
2039;SDS011;1025;42.686;23.350;2024-03-02T07:36:07;44.33;;;32.30;;
2039;SDS011;1025;42.686;23.350;2024-03-02T07:38:33;43.43;;;32.30;;
2039;SDS011;1025;42.686;23.350;2024-03-02T07:41:02;51.13;;;34.20;;
2039;SDS011;1025;42.686;23.350;2024-03-02T07:43:31;40.07;;;28.33;;
2039;SDS011;1025;42.686;23.350;2024-03-02T07:46:00;44.27;;;31.80;;
2039;SDS011;1025;42.686;23.350;2024-03-02T07:48:28;47.03;;;31.30;;
2039;SDS011;1025;42.686;23.350;2024-03-02T07:50:56;38.97;;;28.80;;
2039;SDS011;1025;42.686;23.350;2024-03-02T07:53:23;47.00;;;29.27;;
2039;SDS011;1025;42.686;23.350;2024-03-02T07:55:50;34.73;;;25.60;;
2039;SDS011;1025;42.686;23.350;2024-03-02T07:58:16;38.30;;;25.10;;
2039;SDS011;1025;42.686;23.350;2024-03-02T08:00:44;35.97;;;23.90;;
2039;SDS011;1025;42.686;23.350;2024-03-02T08:03:12;36.53;;;23.63;;
2039;SDS011;1025;42.686;23.350;2024-03-02T08:05:40;37.50;;;24.67;;
2039;SDS011;1025;42.686;23.350;2024-03-02T08:08:06;34.70;;;23.50;;
2039;SDS011;1025;42.686;23.350;2024-03-02T08:10:33;36.00;;;24.30;;
2039;SDS011;1025;42.686;23.350;2024-03-02T08:12:59;33.40;;;25.50;;
2039;SDS011;1025;42.686;23.350;2024-03-02T08:15:26;37.70;;;27.57;;
2039;SDS011;1025;42.686;23.350;2024-03-02T08:17:52;35.33;;;26.30;;
2039;SDS011;1025;42.686;23.350;2024-03-02T08:20:20;37.40;;;24.83;;
2039;SDS011;1025;42.686;23.350;2024-03-02T08:22:47;35.95;;;25.32;;
2039;SDS011;1025;42.686;23.350;2024-03-02T08:25:14;36.77;;;24.87;;
2039;SDS011;1025;42.686;23.350;2024-03-02T08:27:43;38.90;;;24.97;;
2039;SDS011;1025;42.686;23.350;2024-03-02T08:30:10;32.93;;;24.00;;
2039;SDS011;1025;42.686;23.350;2024-03-02T08:32:36;37.30;;;26.43;;
2039;SDS011;1025;42.686;23.350;2024-03-02T08:35:04;35.87;;;24.50;;
2039;SDS011;1025;42.686;23.350;2024-03-02T08:37:32;42.60;;;26.30;;
2039;SDS011;1025;42.686;23.350;2024-03-02T08:39:58;40.53;;;25.30;;
2039;SDS011;1025;42.686;23.350;2024-03-02T08:42:27;41.87;;;27.70;;
2039;SDS011;1025;42.686;23.350;2024-03-02T08:44:54;57.60;;;38.50;;
2039;SDS011;1025;42.686;23.350;2024-03-02T08:47:20;54.80;;;39.20;;
2039;SDS011;1025;42.686;23.350;2024-03-02T08:49:48;58.50;;;41.97;;
2039;SDS011;1025;42.686;23.350;2024-03-02T08:52:15;57.13;;;41.70;;
2039;SDS011;1025;42.686;23.350;2024-03-02T08:54:43;59.17;;;41.53;;
2039;SDS011;1025;42.686;23.350;2024-03-02T08:57:10;50.90;;;40.57;;
2039;SDS011;1025;42.686;23.350;2024-03-02T08:59:37;45.30;;;34.67;;
2039;SDS011;1025;42.686;23.350;2024-03-02T09:02:03;38.90;;;30.57;;
2039;SDS011;1025;42.686;23.350;2024-03-02T09:04:30;38.97;;;28.70;;
2039;SDS011;1025;42.686;23.350;2024-03-02T09:06:57;35.50;;;23.80;;
2039;SDS011;1025;42.686;23.350;2024-03-02T09:09:23;37.80;;;26.37;;
2039;SDS011;1025;42.686;23.350;2024-03-02T09:11:53;31.90;;;26.30;;
2039;SDS011;1025;42.686;23.350;2024-03-02T09:14:22;35.40;;;24.70;;
2039;SDS011;1025;42.686;23.350;2024-03-02T09:16:49;32.60;;;19.83;;
2039;SDS011;1025;42.686;23.350;2024-03-02T09:19:18;34.80;;;23.10;;
2039;SDS011;1025;42.686;23.350;2024-03-02T09:21:45;34.67;;;24.13;;
2039;SDS011;1025;42.686;23.350;2024-03-02T09:24:11;31.20;;;22.60;;
2039;SDS011;1025;42.686;23.350;2024-03-02T09:26:38;29.03;;;23.13;;
2039;SDS011;1025;42.686;23.350;2024-03-02T09:29:06;28.77;;;20.70;;
2039;SDS011;1025;42.686;23.350;2024-03-02T09:31:32;25.30;;;20.60;;
2039;SDS011;1025;42.686;23.350;2024-03-02T09:33:59;27.87;;;22.03;;
2039;SDS011;1025;42.686;23.350;2024-03-02T09:36:25;28.83;;;22.57;;
2039;SDS011;1025;42.686;23.350;2024-03-02T09:38:52;32.10;;;22.60;;
2039;SDS011;1025;42.686;23.350;2024-03-02T09:41:18;30.87;;;23.17;;
2039;SDS011;1025;42.686;23.350;2024-03-02T09:43:45;31.73;;;22.20;;
2039;SDS011;1025;42.686;23.350;2024-03-02T09:46:13;30.43;;;21.70;;
2039;SDS011;1025;42.686;23.350;2024-03-02T09:48:42;22.97;;;18.40;;
2039;SDS011;1025;42.686;23.350;2024-03-02T09:51:10;24.33;;;19.47;;
2039;SDS011;1025;42.686;23.350;2024-03-02T09:53:36;30.50;;;21.70;;
2039;SDS011;1025;42.686;23.350;2024-03-02T09:56:05;30.20;;;21.27;;
2039;SDS011;1025;42.686;23.350;2024-03-02T09:58:32;29.10;;;21.40;;
2039;SDS011;1025;42.686;23.350;2024-03-02T10:00:59;35.30;;;21.80;;
2039;SDS011;1025;42.686;23.350;2024-03-02T10:03:27;34.10;;;23.40;;
2039;SDS011;1025;42.686;23.350;2024-03-02T10:05:57;33.23;;;25.20;;
2039;SDS011;1025;42.686;23.350;2024-03-02T10:08:44;35.60;;;28.20;;
2039;SDS011;1025;42.686;23.350;2024-03-02T10:11:10;32.90;;;26.10;;
2039;SDS011;1025;42.686;23.350;2024-03-02T10:13:37;33.10;;;25.03;;
2039;SDS011;1025;42.686;23.350;2024-03-02T10:16:08;30.83;;;24.37;;
2039;SDS011;1025;42.686;23.350;2024-03-02T10:18:39;30.37;;;21.63;;
2039;SDS011;1025;42.686;23.350;2024-03-02T10:21:12;32.30;;;25.10;;
2039;SDS011;1025;42.686;23.350;2024-03-02T10:23:39;35.20;;;24.00;;
2039;SDS011;1025;42.686;23.350;2024-03-02T10:26:06;30.07;;;23.03;;
2039;SDS011;1025;42.686;23.350;2024-03-02T10:28:45;31.57;;;23.30;;
2039;SDS011;1025;42.686;23.350;2024-03-02T10:31:13;29.40;;;22.17;;
2039;SDS011;1025;42.686;23.350;2024-03-02T10:33:41;29.20;;;20.93;;
2039;SDS011;1025;42.686;23.350;2024-03-02T10:36:08;28.97;;;24.00;;
2039;SDS011;1025;42.686;23.350;2024-03-02T10:38:34;26.77;;;19.40;;
2039;SDS011;1025;42.686;23.350;2024-03-02T10:41:01;25.23;;;19.63;;
2039;SDS011;1025;42.686;23.350;2024-03-02T10:43:31;24.60;;;19.10;;
2039;SDS011;1025;42.686;23.350;2024-03-02T10:45:57;29.97;;;20.90;;
2039;SDS011;1025;42.686;23.350;2024-03-02T10:48:25;31.60;;;22.83;;
2039;SDS011;1025;42.686;23.350;2024-03-02T10:50:55;33.47;;;20.73;;
2039;SDS011;1025;42.686;23.350;2024-03-02T10:53:26;30.83;;;21.03;;
2039;SDS011;1025;42.686;23.350;2024-03-02T10:55:53;23.70;;;19.47;;
2039;SDS011;1025;42.686;23.350;2024-03-02T10:58:25;28.87;;;21.67;;
2039;SDS011;1025;42.686;23.350;2024-03-02T11:00:53;28.03;;;21.40;;
2039;SDS011;1025;42.686;23.350;2024-03-02T11:03:20;27.93;;;21.50;;
2039;SDS011;1025;42.686;23.350;2024-03-02T11:05:46;29.03;;;21.67;;
2039;SDS011;1025;42.686;23.350;2024-03-02T11:08:16;27.00;;;20.57;;
2039;SDS011;1025;42.686;23.350;2024-03-02T11:10:45;28.43;;;20.47;;
2039;SDS011;1025;42.686;23.350;2024-03-02T11:13:20;23.77;;;21.17;;
2039;SDS011;1025;42.686;23.350;2024-03-02T11:15:49;27.80;;;20.17;;
2039;SDS011;1025;42.686;23.350;2024-03-02T11:18:18;23.23;;;17.20;;
2039;SDS011;1025;42.686;23.350;2024-03-02T11:20:46;22.97;;;17.97;;
2039;SDS011;1025;42.686;23.350;2024-03-02T11:23:15;21.37;;;17.47;;
2039;SDS011;1025;42.686;23.350;2024-03-02T11:25:41;28.60;;;19.90;;
2039;SDS011;1025;42.686;23.350;2024-03-02T11:28:10;34.60;;;22.97;;
2039;SDS011;1025;42.686;23.350;2024-03-02T11:33:26;25.70;;;19.23;;
2039;SDS011;1025;42.686;23.350;2024-03-02T11:35:54;24.10;;;18.60;;
2039;SDS011;1025;42.686;23.350;2024-03-02T11:38:23;21.13;;;18.20;;
2039;SDS011;1025;42.686;23.350;2024-03-02T11:40:53;28.60;;;19.83;;
2039;SDS011;1025;42.686;23.350;2024-03-02T11:43:20;25.60;;;17.90;;
2039;SDS011;1025;42.686;23.350;2024-03-02T11:45:46;24.93;;;18.50;;
2039;SDS011;1025;42.686;23.350;2024-03-02T11:48:14;25.83;;;19.10;;
2039;SDS011;1025;42.686;23.350;2024-03-02T11:50:41;24.17;;;18.37;;
2039;SDS011;1025;42.686;23.350;2024-03-02T11:53:08;27.70;;;19.57;;
2039;SDS011;1025;42.686;23.350;2024-03-02T11:55:39;26.83;;;19.77;;
2039;SDS011;1025;42.686;23.350;2024-03-02T11:58:05;22.07;;;17.47;;
2039;SDS011;1025;42.686;23.350;2024-03-02T12:00:35;20.70;;;16.53;;
2039;SDS011;1025;42.686;23.350;2024-03-02T12:03:09;25.20;;;19.10;;
2039;SDS011;1025;42.686;23.350;2024-03-02T12:05:38;23.23;;;17.87;;
2039;SDS011;1025;42.686;23.350;2024-03-02T12:08:06;28.60;;;18.90;;
2039;SDS011;1025;42.686;23.350;2024-03-02T12:10:36;27.37;;;18.57;;
2039;SDS011;1025;42.686;23.350;2024-03-02T12:13:06;21.77;;;19.07;;
2039;SDS011;1025;42.686;23.350;2024-03-02T12:15:33;24.10;;;18.43;;
2039;SDS011;1025;42.686;23.350;2024-03-02T12:18:03;19.67;;;14.90;;
2039;SDS011;1025;42.686;23.350;2024-03-02T12:20:30;18.87;;;15.77;;
2039;SDS011;1025;42.686;23.350;2024-03-02T12:22:59;20.10;;;16.80;;
2039;SDS011;1025;42.686;23.350;2024-03-02T12:25:26;22.40;;;16.33;;
2039;SDS011;1025;42.686;23.350;2024-03-02T12:27:53;20.43;;;15.83;;
2039;SDS011;1025;42.686;23.350;2024-03-02T12:30:23;23.50;;;17.97;;
2039;SDS011;1025;42.686;23.350;2024-03-02T12:32:50;18.70;;;16.40;;
2039;SDS011;1025;42.686;23.350;2024-03-02T12:35:17;19.33;;;15.83;;
2039;SDS011;1025;42.686;23.350;2024-03-02T12:37:46;20.20;;;18.07;;
2039;SDS011;1025;42.686;23.350;2024-03-02T12:40:13;21.60;;;18.07;;
2039;SDS011;1025;42.686;23.350;2024-03-02T12:42:40;24.67;;;19.63;;
2039;SDS011;1025;42.686;23.350;2024-03-02T12:45:08;23.43;;;18.83;;
2039;SDS011;1025;42.686;23.350;2024-03-02T12:47:36;20.30;;;18.17;;
2039;SDS011;1025;42.686;23.350;2024-03-02T12:50:03;19.53;;;14.63;;
2039;SDS011;1025;42.686;23.350;2024-03-02T12:52:32;16.73;;;14.20;;
2039;SDS011;1025;42.686;23.350;2024-03-02T12:54:59;17.50;;;15.20;;
2039;SDS011;1025;42.686;23.350;2024-03-02T12:57:26;15.63;;;12.73;;
2039;SDS011;1025;42.686;23.350;2024-03-02T12:59:56;20.50;;;15.27;;
2039;SDS011;1025;42.686;23.350;2024-03-02T13:02:23;16.87;;;15.03;;
2039;SDS011;1025;42.686;23.350;2024-03-02T13:04:53;17.30;;;14.60;;
2039;SDS011;1025;42.686;23.350;2024-03-02T13:07:20;18.40;;;16.20;;
2039;SDS011;1025;42.686;23.350;2024-03-02T13:09:47;22.23;;;14.87;;
2039;SDS011;1025;42.686;23.350;2024-03-02T13:12:14;23.58;;;15.16;;
2039;SDS011;1025;42.686;23.350;2024-03-02T13:14:41;21.90;;;14.97;;
2039;SDS011;1025;42.686;23.350;2024-03-02T13:17:08;15.93;;;14.20;;
2039;SDS011;1025;42.686;23.350;2024-03-02T13:19:35;19.30;;;15.70;;
2039;SDS011;1025;42.686;23.350;2024-03-02T13:22:05;17.97;;;16.07;;
2039;SDS011;1025;42.686;23.350;2024-03-02T13:24:31;23.47;;;16.70;;
2039;SDS011;1025;42.686;23.350;2024-03-02T13:26:58;21.93;;;16.10;;
2039;SDS011;1025;42.686;23.350;2024-03-02T13:29:25;30.67;;;16.80;;
2039;SDS011;1025;42.686;23.350;2024-03-02T13:31:51;20.23;;;14.73;;
2039;SDS011;1025;42.686;23.350;2024-03-02T13:34:18;19.40;;;16.63;;
2039;SDS011;1025;42.686;23.350;2024-03-02T13:36:45;18.93;;;14.90;;
2039;SDS011;1025;42.686;23.350;2024-03-02T13:39:13;17.30;;;15.43;;
2039;SDS011;1025;42.686;23.350;2024-03-02T13:41:40;20.80;;;17.30;;
2039;SDS011;1025;42.686;23.350;2024-03-02T13:44:09;17.80;;;15.90;;
2039;SDS011;1025;42.686;23.350;2024-03-02T13:46:36;19.67;;;16.40;;
2039;SDS011;1025;42.686;23.350;2024-03-02T13:49:03;21.07;;;17.03;;
2039;SDS011;1025;42.686;23.350;2024-03-02T13:51:29;18.73;;;16.17;;
2039;SDS011;1025;42.686;23.350;2024-03-02T13:53:58;18.60;;;16.57;;
2039;SDS011;1025;42.686;23.350;2024-03-02T13:56:26;20.60;;;16.40;;
2039;SDS011;1025;42.686;23.350;2024-03-02T13:58:53;19.37;;;15.67;;
2039;SDS011;1025;42.686;23.350;2024-03-02T14:01:19;27.80;;;18.50;;
2039;SDS011;1025;42.686;23.350;2024-03-02T14:03:46;19.67;;;17.60;;
2039;SDS011;1025;42.686;23.350;2024-03-02T14:06:15;20.10;;;16.60;;
2039;SDS011;1025;42.686;23.350;2024-03-02T14:08:42;18.03;;;16.00;;
2039;SDS011;1025;42.686;23.350;2024-03-02T14:11:13;26.40;;;15.77;;
2039;SDS011;1025;42.686;23.350;2024-03-02T14:13:42;22.93;;;17.70;;
2039;SDS011;1025;42.686;23.350;2024-03-02T14:16:12;22.47;;;16.67;;
2039;SDS011;1025;42.686;23.350;2024-03-02T14:18:39;21.37;;;15.10;;
2039;SDS011;1025;42.686;23.350;2024-03-02T14:21:05;24.10;;;16.77;;
2039;SDS011;1025;42.686;23.350;2024-03-02T14:23:32;21.93;;;18.97;;
2039;SDS011;1025;42.686;23.350;2024-03-02T14:25:59;21.80;;;17.10;;
2039;SDS011;1025;42.686;23.350;2024-03-02T14:28:25;26.43;;;17.63;;
2039;SDS011;1025;42.686;23.350;2024-03-02T14:30:52;26.27;;;17.27;;
2039;SDS011;1025;42.686;23.350;2024-03-02T14:33:19;24.37;;;17.67;;
2039;SDS011;1025;42.686;23.350;2024-03-02T14:35:46;20.27;;;16.37;;
2039;SDS011;1025;42.686;23.350;2024-03-02T14:38:13;19.70;;;15.53;;
2039;SDS011;1025;42.686;23.350;2024-03-02T14:40:40;23.03;;;17.50;;
2039;SDS011;1025;42.686;23.350;2024-03-02T14:43:10;21.50;;;16.60;;